Time;durP1;ratioP1;P1;durP2;ratioP2;P2;SDS_P1;SDS_P2;PMS_P1;PMS_P2;Temp;Humidity;BMP_temperature;BMP_pressure;BME280_temperature;BME280_humidity;BME280_pressure;Samples;Min_cycle;Max_cycle;Signal;HPM_P1;HPM_P2
2021/01/25 00:01:22;;;;;;;11.05;6.95;;;6.00;63.00;;;;;;5012938;28;20393;-67
2021/01/25 00:03:47;;;;;;;;;;;6.00;63.50;;;;;;5013997;28;20026;-67
2021/01/25 00:06:14;;;;;;;16.95;8.73;;;;;;;;;;5013357;28;20412;-67
2021/01/25 00:08:40;;;;;;;12.15;8.13;;;;;;;;;;5013676;28;20026;-67
2021/01/25 00:11:07;;;;;;;14.02;7.45;;;;;;;;;;5013403;28;20030;-66
2021/01/25 00:13:33;;;;;;;15.40;7.72;;;;;;;;;;5013469;28;20049;-66
2021/01/25 00:15:59;;;;;;;14.60;7.45;;;;;;;;;;5012640;28;20038;-67
2021/01/25 00:18:26;;;;;;;14.73;7.88;;;;;;;;;;5013151;28;20506;-67
2021/01/25 00:20:52;;;;;;;14.18;7.97;;;;;;;;;;5013230;28;20137;-67
2021/01/25 00:23:18;;;;;;;15.52;7.95;;;;;;;;;;5013026;28;20486;-67
2021/01/25 00:25:44;;;;;;;13.75;7.97;;;;;;;;;;5011798;28;20076;-67
2021/01/25 00:28:11;;;;;;;17.48;8.25;;;;;;;;;;5013129;28;20030;-69
2021/01/25 00:30:37;;;;;;;13.38;7.70;;;;;;;;;;5012646;28;20061;-67
2021/01/25 00:33:03;;;;;;;15.32;8.45;;;;;;;;;;5013251;28;20478;-67
2021/01/25 00:35:29;;;;;;;15.43;8.05;;;;;;;;;;5012752;28;20037;-68
2021/01/25 00:37:56;;;;;;;17.65;8.25;;;;;;;;;;5012880;28;20034;-68
2021/01/25 00:40:22;;;;;;;16.10;8.48;;;;;;;;;;5012599;28;20026;-67
2021/01/25 00:42:48;;;;;;;13.13;8.13;;;;;;;;;;5012821;28;20026;-68
2021/01/25 00:45:16;;;;;;;14.25;8.68;;;;;;;;;;5012115;28;20353;-67
2021/01/25 00:47:43;;;;;;;14.75;8.10;;;;;;;;;;5012602;28;20379;-69
2021/01/25 00:50:09;;;;;;;14.07;9.43;;;;;;;;;;5012309;28;20088;-65
2021/01/25 00:52:35;;;;;;;16.83;8.20;;;;;;;;;;5012580;28;20034;-68
2021/01/25 00:55:04;;;;;;;17.05;9.60;;;6.00;63.80;;;;;;5011242;28;20389;-69
2021/01/25 00:57:32;;;;;;;18.48;9.07;;;;;;;;;;5011218;28;20037;-68
2021/01/25 00:59:58;;;;;;;17.77;8.82;;;;;;;;;;5012140;28;20041;-66
2021/01/25 01:02:25;;;;;;;18.80;9.90;;;;;;;;;;5012443;28;20438;-67
2021/01/25 01:04:51;;;;;;;19.02;10.65;;;;;;;;;;5012280;28;20053;-67
2021/01/25 01:07:17;;;;;;;17.63;10.10;;;;;;;;;;5012542;28;20022;-67
2021/01/25 01:09:44;;;;;;;18.95;11.02;;;;;;;;;;5012098;28;20056;-67
2021/01/25 01:12:10;;;;;;;25.20;12.25;;;;;;;;;;5012627;28;20030;-67
2021/01/25 01:14:36;;;;;;;20.10;12.85;;;;;;;;;;5011446;28;20412;-67
2021/01/25 01:17:03;;;;;;;23.88;14.38;;;;;;;;;;5012493;28;20028;-68
2021/01/25 01:19:29;;;;;;;26.17;13.15;;;;;;;;;;5012139;28;20033;-67
2021/01/25 01:21:55;;;;;;;23.70;13.80;;;;;;;;;;5007748;28;20050;-68
2021/01/25 01:24:21;;;;;;;26.65;14.77;;;;;;;;;;5002714;28;20041;-68
2021/01/25 01:26:48;;;;;;;28.95;15.00;;;;;;;;;;5011201;28;20038;-68
2021/01/25 01:29:14;;;;;;;26.02;15.57;;;;;;;;;;5011548;28;20112;-66
2021/01/25 01:31:40;;;;;;;28.15;15.63;;;;;;;;;;5012049;28;20045;-66
2021/01/25 01:34:07;;;;;;;26.25;14.60;;;;;;;;;;5012083;28;20034;-68
2021/01/25 01:36:33;;;;;;;26.35;14.93;;;;;;;;;;5012137;28;20029;-68
2021/01/25 01:38:59;;;;;;;26.17;14.90;;;;;;;;;;5011758;28;20025;-67
2021/01/25 01:41:26;;;;;;;31.17;16.48;;;;;;;;;;5011814;28;20471;-65
2021/01/25 01:43:52;;;;;;;28.13;15.43;;;;;;;;;;5011532;28;20030;-66
2021/01/25 01:46:18;;;;;;;25.73;15.65;;;;;;;;;;5012035;28;20474;-66
2021/01/25 01:48:45;;;;;;;30.95;15.95;;;;;;;;;;5011658;28;20034;-66
2021/01/25 01:51:11;;;;;;;32.58;15.88;;;;;;;;;;5011802;28;20030;-68
2021/01/25 01:53:37;;;;;;;32.78;16.52;;;;;;;;;;5011883;28;20482;-67
2021/01/25 01:56:04;;;;;;;32.97;17.45;;;;;;;;;;5011399;28;20030;-65
2021/01/25 01:58:30;;;;;;;30.67;17.90;;;;;;;;;;5011790;28;20046;-66
2021/01/25 02:00:56;;;;;;;29.45;16.60;;;;;;;;;;5011758;28;20026;-65
2021/01/25 02:03:23;;;;;;;31.23;16.23;;;;;;;;;;5011645;28;20034;-67
2021/01/25 02:05:49;;;;;;;30.02;16.75;;;;;;;;;;5011832;28;20038;-67
2021/01/25 02:08:16;;;;;;;31.92;16.70;;;;;;;;;;5011647;28;20414;-66
2021/01/25 02:10:43;;;;;;;34.70;17.58;;;6.60;62.10;;;;;;5011382;28;20080;-66
2021/01/25 02:13:09;;;;;;;31.77;17.48;;;;;;;;;;5011376;28;20034;-68
2021/01/25 02:15:36;;;;;;;47.03;18.20;;;;;;;;;;5011792;28;20092;-66
2021/01/25 02:18:02;;;;;;;35.15;17.77;;;;;;;;;;5011443;28;20062;-67
2021/01/25 02:20:34;;;;;;;39.92;18.30;;;6.20;62.90;;;;;;5011755;28;20489;-68
2021/01/25 02:23:01;;;;;;;35.40;17.75;;;;;;;;;;5011414;28;20409;-65
2021/01/25 02:25:39;;;;;;;38.13;18.30;;;6.00;63.00;;;;;;5010923;28;20033;-66
2021/01/25 02:28:06;;;;;;;34.95;18.17;;;;;;;;;;5011606;28;20489;-67
2021/01/25 02:30:33;;;;;;;35.40;19.10;;;;;;;;;;5011286;28;20100;-67
2021/01/25 02:32:59;;;;;;;37.22;19.08;;;;;;;;;;5011483;28;20445;-65
2021/01/25 02:35:27;;;;;;;40.10;19.23;;;6.60;62.10;;;;;;5011380;28;20041;-66
2021/01/25 02:37:55;;;;;;;34.33;18.00;;;;;;;;;;5011337;28;20030;-68
2021/01/25 02:40:23;;;;;;;37.58;19.67;;;6.50;61.70;;;;;;5014717;28;20042;-68
2021/01/25 02:42:53;;;;;;;39.38;19.52;;;6.40;62.30;;;;;;5015052;28;20498;-66
2021/01/25 02:45:21;;;;;;;41.00;19.83;;;6.40;62.00;;;;;;5014962;28;20030;-66
2021/01/25 02:47:48;;;;;;;34.55;18.63;;;;;;;;;;5014994;28;20125;-66
2021/01/25 02:50:15;;;;;;;38.30;19.92;;;;;;;;;;5014684;28;20150;-66
2021/01/25 02:52:41;;;;;;;42.25;19.42;;;;;;;;;;5014595;28;20478;-66
2021/01/25 02:55:07;;;;;;;39.08;19.77;;;;;;;;;;5014275;28;20030;-66
2021/01/25 02:57:36;;;;;;;32.88;17.50;;;6.10;62.80;;;;;;5014853;28;20485;-66
2021/01/25 03:00:07;;;;;;;37.85;19.73;;;6.20;63.00;;;;;;5001234;28;20076;-66
2021/01/25 03:02:33;;;;;;;40.08;18.98;;;;;;;;;;5014714;28;20041;-67
2021/01/25 03:05:00;;;;;;;44.78;20.75;;;6.50;62.30;;;;;;5014555;28;20417;-66
2021/01/25 03:07:27;;;;;;;39.88;21.33;;;;;;;;;;5014625;28;20080;-67
2021/01/25 03:09:53;;;;;;;41.92;20.77;;;;;;;;;;5013908;28;20056;-67
2021/01/25 03:12:19;;;;;;;42.60;21.10;;;;;;;;;;5014424;28;20057;-67
2021/01/25 03:14:46;;;;;;;41.67;22.40;;;;;;;;;;5014234;28;20025;-67
2021/01/25 03:17:13;;;;;;;40.95;21.42;;;;;;;;;;5014356;28;20033;-67
2021/01/25 03:19:39;;;;;;;40.25;19.58;;;;;;;;;;5014274;28;20069;-67
2021/01/25 03:22:05;;;;;;;38.85;21.30;;;;;;;;;;5013811;28;20508;-67
2021/01/25 03:24:32;;;;;;;40.78;20.77;;;;;;;;;;5012607;28;20490;-68
2021/01/25 03:26:58;;;;;;;42.50;21.30;;;;;;;;;;5014437;28;20021;-66
2021/01/25 03:29:24;;;;;;;40.47;20.52;;;;;;;;;;5005446;28;20439;-64
2021/01/25 03:31:51;;;;;;;37.83;20.17;;;;;;;;;;5014098;28;20331;-66
2021/01/25 03:34:17;;;;;;;38.92;19.92;;;;;;;;;;5013937;28;20037;-67
2021/01/25 03:36:43;;;;;;;43.72;20.08;;;;;;;;;;5013761;28;20065;-68
2021/01/25 03:39:09;;;;;;;35.10;19.48;;;;;;;;;;5013707;28;20548;-66
2021/01/25 03:41:36;;;;;;;36.60;20.95;;;;;;;;;;5013894;28;20048;-66
2021/01/25 03:44:02;;;;;;;36.50;18.90;;;;;;;;;;5012523;28;20049;-65
2021/01/25 03:46:28;;;;;;;35.17;20.02;;;;;;;;;;5013762;28;20045;-65
2021/01/25 03:48:55;;;;;;;34.83;19.73;;;;;;;;;;5013439;28;20044;-67
2021/01/25 03:51:21;;;;;;;38.25;19.40;;;;;;;;;;5012910;28;20046;-67
2021/01/25 03:53:48;;;;;;;33.55;18.65;;;;;;;;;;5011738;28;20040;-66
2021/01/25 03:56:14;;;;;;;43.30;20.77;;;6.50;62.50;;;;;;5013704;28;20033;-67
2021/01/25 03:58:41;;;;;;;37.38;20.63;;;6.60;62.10;;;;;;5013502;28;20505;-66
2021/01/25 04:01:08;;;;;;;35.65;19.75;;;;;;;;;;5013582;28;20378;-66
2021/01/25 04:03:34;;;;;;;41.05;20.50;;;;;;;;;;5013627;28;20042;-66
2021/01/25 04:06:01;;;;;;;38.63;20.20;;;;;;;;;;5013359;28;20073;-67
2021/01/25 04:08:27;;;;;;;37.38;19.85;;;;;;;;;;5013163;28;20036;-67
2021/01/25 04:10:53;;;;;;;45.90;22.25;;;;;;;;;;5013458;28;20030;-66
2021/01/25 04:13:20;;;;;;;43.88;21.45;;;;;;;;;;5013122;28;20049;-67
2021/01/25 04:15:46;;;;;;;40.60;21.50;;;;;;;;;;5013315;28;20034;-67
2021/01/25 04:18:12;;;;;;;41.83;21.02;;;;;;;;;;5013245;28;20025;-66
2021/01/25 04:20:38;;;;;;;37.63;20.75;;;;;;;;;;5013066;28;20034;-67
2021/01/25 04:23:05;;;;;;;39.80;21.38;;;;;;;;;;5012351;28;20036;-67
2021/01/25 04:25:31;;;;;;;46.28;22.63;;;;;;;;;;5013411;28;20398;-67
2021/01/25 04:27:57;;;;;;;38.15;20.85;;;;;;;;;;5012953;28;20037;-67
2021/01/25 04:30:24;;;;;;;43.63;20.08;;;;;;;;;;5013023;28;20147;-66
2021/01/25 04:32:50;;;;;;;;;;;6.40;62.60;;;;;;5013280;28;20033;-67
2021/01/25 04:35:19;;;;;;;38.30;19.35;;;;;;;;;;5012978;28;19910;-68
2021/01/25 04:37:45;;;;;;;40.75;21.20;;;;;;;;;;5012042;28;20383;-68
2021/01/25 04:40:12;;;;;;;43.65;21.20;;;6.60;61.90;;;;;;5012877;28;20026;-68
2021/01/25 04:42:38;;;;;;;;;;;6.60;62.30;;;;;;5013157;28;20072;-65
2021/01/25 04:45:12;;;;;;;38.60;18.67;;;6.30;62.70;;;;;;5012669;28;19909;-66
2021/01/25 04:47:45;;;;;;;35.83;19.42;;;6.60;62.40;;;;;;5012684;28;20041;-66
2021/01/25 04:50:12;;;;;;;37.25;19.55;;;;;;;;;;5011956;28;20089;-69
2021/01/25 04:52:38;;;;;;;36.55;18.95;;;;;;;;;;5012596;28;20041;-69
2021/01/25 04:55:05;;;;;;;36.20;19.40;;;;;;;;;;5012596;28;20030;-68
2021/01/25 04:57:33;;;;;;;38.28;20.85;;;6.50;62.20;;;;;;5012766;28;20038;-67
2021/01/25 05:00:01;;;;;;;37.40;19.85;;;;;;;;;;5012705;28;20026;-68
2021/01/25 05:02:28;;;;;;;38.75;20.23;;;;;;;;;;5012283;28;20037;-67
2021/01/25 05:04:54;;;;;;;37.50;20.17;;;;;;;;;;5011936;28;20036;-67
2021/01/25 05:07:20;;;;;;;36.38;20.20;;;;;;;;;;5012053;28;20042;-66
2021/01/25 05:09:47;;;;;;;41.88;19.25;;;;;;;;;;5012508;28;20044;-65
2021/01/25 05:12:13;;;;;;;35.58;18.85;;;;;;;;;;5012142;28;20026;-66
2021/01/25 05:14:43;;;;;;;39.00;17.75;;;6.90;61.20;;;;;;5012186;28;20045;-68
2021/01/25 05:17:11;;;;;;;36.92;18.92;;;7.10;60.60;;;;;;5011959;28;20040;-68
2021/01/25 05:19:38;;;;;;;36.50;18.60;;;7.10;60.50;;;;;;5011367;28;20030;-67
2021/01/25 05:22:19;;;;;;;41.08;19.55;;;7.00;60.50;;;;;;5012018;28;20058;-66
2021/01/25 05:24:55;;;;;;;39.15;19.88;;;7.10;60.70;;;;;;5000197;28;20060;-67
2021/01/25 05:27:30;;;;;;;40.90;19.80;;;6.90;60.90;;;;;;5012049;28;20497;-67
2021/01/25 05:30:13;;;;;;;40.67;19.27;;;7.00;61.20;;;;;;5011939;28;20028;-68
2021/01/25 05:32:58;;;;;;;37.70;18.45;;;6.80;61.30;;;;;;5012130;28;20033;-69
2021/01/25 05:35:29;;;;;;;34.00;18.00;;;6.70;61.60;;;;;;5011617;28;20038;-66
2021/01/25 05:37:57;;;;;;;39.35;21.42;;;6.60;61.80;;;;;;5011563;28;20038;-66
2021/01/25 05:40:26;;;;;;;43.03;20.00;;;6.50;62.60;;;;;;5011859;28;20041;-66
2021/01/25 05:42:52;;;;;;;38.10;19.40;;;;;;;;;;5010081;28;20085;-66
2021/01/25 05:45:19;;;;;;;43.33;20.23;;;6.20;63.80;;;;;;5011568;28;20367;-66
2021/01/25 05:47:46;;;;;;;40.55;20.98;;;6.20;64.00;;;;;;5011690;28;20383;-67
2021/01/25 05:50:25;;;;;;;;;;;6.10;64.40;;;;;;5011239;28;20038;-66
2021/01/25 05:52:52;;;;;;;45.35;22.52;;;6.00;64.80;;;;;;5011570;28;19913;-67
2021/01/25 05:55:19;;;;;;;47.88;23.55;;;;;;;;;;5011246;28;20026;-67
2021/01/25 05:57:45;;;;;;;51.30;24.50;;;;;;;;;;5011512;28;20529;-67
2021/01/25 06:00:12;;;;;;;53.08;24.58;;;;;;;;;;5011643;28;20034;-66
2021/01/25 06:02:42;;;;;;;54.00;25.48;;;5.80;65.70;;;;;;5011374;28;20041;-65
2021/01/25 06:05:11;;;;;;;48.03;25.63;;;5.80;65.90;;;;;;5011026;28;20029;-66
2021/01/25 06:07:40;;;;;;;49.35;24.75;;;5.70;66.00;;;;;;5009430;28;20576;-67
2021/01/25 06:10:12;;;;;;;46.17;23.48;;;5.70;66.10;;;;;;5011341;28;20042;-66
2021/01/25 06:12:40;;;;;;;46.92;25.33;;;5.80;65.80;;;;;;5011148;28;20502;-66
2021/01/25 06:15:16;;;;;;;50.42;24.27;;;6.00;65.50;;;;;;5014864;28;20041;-67
2021/01/25 06:17:46;;;;;;;49.38;24.85;;;6.00;65.20;;;;;;5014846;28;20037;-66
2021/01/25 06:20:16;;;;;;;54.30;26.50;;;6.00;65.00;;;;;;5015133;28;20036;-67
2021/01/25 06:22:46;;;;;;;62.47;26.15;;;6.00;65.10;;;;;;5014792;28;20042;-66
2021/01/25 06:25:14;;;;;;;55.05;26.17;;;6.20;64.70;;;;;;5015383;28;20048;-68
2021/01/25 06:27:45;;;;;;;48.97;24.55;;;6.10;65.00;;;;;;5015134;28;20037;-67
2021/01/25 06:30:12;;;;;;;50.28;24.60;;;6.00;64.30;;;;;;5015041;28;20033;-65
2021/01/25 06:32:42;;;;;;;47.28;25.25;;;6.10;64.10;;;;;;5014475;28;20066;-67
2021/01/25 06:35:13;;;;;;;47.67;25.08;;;6.20;63.80;;;;;;5015205;28;20042;-67
2021/01/25 06:37:40;;;;;;;55.17;24.20;;;;;;;;;;5014967;28;20038;-67
2021/01/25 06:40:09;;;;;;;43.75;24.17;;;6.40;62.70;;;;;;5014914;28;20068;-67
2021/01/25 06:42:38;;;;;;;50.28;23.83;;;6.50;62.70;;;;;;5014948;28;20042;-67
2021/01/25 06:45:05;;;;;;;41.47;22.92;;;6.50;62.40;;;;;;5014493;28;20038;-66
2021/01/25 06:47:34;;;;;;;48.38;24.52;;;6.60;62.00;;;;;;5014278;28;20061;-68
2021/01/25 06:50:00;;;;;;;47.67;23.77;;;;;;;;;;5014523;28;20042;-67
2021/01/25 06:52:29;;;;;;;45.88;23.38;;;6.60;61.50;;;;;;5014643;28;20109;-67
2021/01/25 06:55:01;;;;;;;47.28;22.20;;;6.70;61.40;;;;;;5014435;28;20030;-67
2021/01/25 06:57:28;;;;;;;45.35;22.27;;;;;;;;;;5013698;28;20041;-67
2021/01/25 06:59:57;;;;;;;44.63;20.80;;;6.70;60.70;;;;;;5014565;28;20042;-68
2021/01/25 07:02:23;;;;;;;37.95;20.73;;;;;;;;;;5013782;28;20045;-67
2021/01/25 07:04:51;;;;;;;35.00;19.60;;;6.70;60.80;;;;;;5014381;28;20525;-66
2021/01/25 07:07:30;;;;;;;40.90;19.55;;;6.90;60.60;;;;;;5013031;28;20060;-68
2021/01/25 07:09:57;;;;;;;37.30;19.63;;;6.80;60.20;;;;;;5014550;28;20100;-67
2021/01/25 07:12:25;;;;;;;39.83;20.92;;;6.80;60.00;;;;;;5014141;28;20014;-67
2021/01/25 07:14:54;;;;;;;40.03;19.67;;;6.70;59.90;;;;;;4320333;28;10000699;-66
2021/01/25 07:17:21;;;;;;;45.47;21.35;;;;;;;;;;5003195;28;20088;-66
2021/01/25 07:19:47;;;;;;;44.85;20.98;;;;;;;;;;5011897;28;20545;-67
2021/01/25 07:22:13;;;;;;;40.53;21.63;;;;;;;;;;5012011;28;20069;-66
2021/01/25 07:24:40;;;;;;;45.97;21.50;;;;;;;;;;5011005;28;20037;-66
2021/01/25 07:27:07;;;;;;;40.90;21.90;;;;;;;;;;5011271;28;20034;-65
2021/01/25 07:29:33;;;;;;;;;;;5.90;62.40;;;;;;5011527;28;20389;-66
2021/01/25 07:31:59;;;;;;;50.33;25.00;;;;;;;;;;5011151;28;19913;-66
2021/01/25 07:34:28;;;;;;;38.90;22.58;;;5.60;63.50;;;;;;5011556;28;20037;-65
2021/01/25 07:36:54;;;;;;;50.60;24.80;;;;;;;;;;5011176;28;20026;-68
2021/01/25 07:39:21;;;;;;;54.90;25.08;;;;;;;;;;5011560;28;20077;-66
2021/01/25 07:41:47;;;;;;;51.70;26.27;;;;;;;;;;5004255;28;20061;-66
2021/01/25 07:44:14;;;;;;;48.88;25.58;;;5.70;63.50;;;;;;5004253;28;20033;-67
2021/01/25 07:46:43;;;;;;;43.97;24.13;;;5.80;63.00;;;;;;5001807;28;20030;-65
2021/01/25 07:49:09;;;;;;;48.30;25.85;;;;;;;;;;5005346;28;20259;-66
2021/01/25 07:51:37;;;;;;;44.80;24.25;;;;;;;;;;5005822;28;20088;-67
2021/01/25 07:54:04;;;;;;;59.88;25.63;;;5.90;62.10;;;;;;5005774;28;20030;-68
2021/01/25 07:56:30;;;;;;;47.92;26.85;;;;;;;;;;5001309;28;20561;-67
2021/01/25 07:59:19;;;;;;;54.83;25.45;;;5.80;62.40;;;;;;5004357;28;20033;-68
2021/01/25 08:01:52;;;;;;;50.53;25.40;;;5.50;62.80;;;;;;5002466;28;20042;-67
2021/01/25 08:04:23;;;;;;;54.03;27.23;;;5.40;63.30;;;;;;5008021;28;20064;-66
2021/01/25 08:06:53;;;;;;;50.85;26.77;;;5.30;63.60;;;;;;5002498;28;20125;-66
2021/01/25 08:09:21;;;;;;;56.88;28.05;;;;;;;;;;4997923;28;20037;-65
2021/01/25 08:11:48;;;;;;;46.38;25.73;;;5.30;63.60;;;;;;5011180;28;20536;-66
2021/01/25 08:14:22;;;;;;;59.58;27.80;;;5.30;63.70;;;;;;5013764;28;20026;-65
2021/01/25 08:16:58;;;;;;;53.60;27.48;;;5.30;63.50;;;;;;5010466;28;20103;-69
2021/01/25 08:19:37;;;;;;;57.15;28.35;;;5.20;63.80;;;;;;4994337;28;20081;-65
2021/01/25 08:22:12;;;;;;;53.65;25.58;;;5.30;64.00;;;;;;4993473;28;20082;-68
2021/01/25 08:24:38;;;;;;;51.58;25.90;;;;;;;;;;4993599;28;20062;-68
2021/01/25 08:27:13;;;;;;;58.97;26.23;;;5.50;63.60;;;;;;4993773;28;20030;-67
2021/01/25 08:29:40;;;;;;;52.03;25.73;;;5.50;63.00;;;;;;4992803;28;20132;-67
2021/01/25 08:32:28;;;;;;;56.15;27.55;;;5.60;62.60;;;;;;4993547;28;20042;-67
2021/01/25 08:35:03;;;;;;;52.88;26.90;;;5.60;62.50;;;;;;4993335;28;20022;-68
2021/01/25 08:37:32;;;;;;;56.22;28.02;;;5.70;62.20;;;;;;5003769;28;20022;-67
2021/01/25 08:40:20;;;;;;;45.92;24.80;;;5.70;62.10;;;;;;5012359;28;20075;-67
2021/01/25 08:42:47;;;;;;;56.55;28.30;;;;;;;;;;5011554;28;20034;-66
2021/01/25 08:45:29;;;;;;;51.15;26.23;;;5.80;62.00;;;;;;5012264;28;20038;-66
2021/01/25 08:48:03;;;;;;;47.10;25.33;;;5.70;61.50;;;;;;5012372;28;20029;-66
2021/01/25 08:50:29;;;;;;;59.67;26.00;;;;;;;;;;5012150;28;20042;-68
2021/01/25 08:53:08;;;;;;;46.97;25.60;;;6.00;61.20;;;;;;5012400;28;20025;-67
2021/01/25 08:55:41;;;;;;;53.08;25.33;;;6.10;60.80;;;;;;5011952;28;20057;-66
2021/01/25 08:58:16;;;;;;;49.10;25.63;;;6.10;60.80;;;;;;5011602;28;20379;-64
2021/01/25 09:00:43;;;;;;;51.17;25.90;;;;;;;;;;5011891;28;20037;-64
2021/01/25 09:03:12;;;;;;;58.45;27.42;;;6.20;60.70;;;;;;5010992;28;20038;-66
2021/01/25 09:05:41;;;;;;;60.33;27.83;;;;;;;;;;4736145;28;10000950;-66
2021/01/25 09:08:07;;;;;;;59.17;27.15;;;;;;;;;;5009212;28;20235;-67
2021/01/25 09:10:34;;;;;;;53.60;27.20;;;;;;;;;;5009732;28;20192;-67
2021/01/25 09:13:00;;;;;;;55.20;26.40;;;;;;;;;;5009131;28;20033;-66
2021/01/25 09:15:26;;;;;;;53.95;26.40;;;;;;;;;;5009778;28;20398;-66
2021/01/25 09:17:54;;;;;;;57.17;28.40;;;6.40;60.50;;;;;;5009756;28;20038;-66
2021/01/25 09:20:20;;;;;;;54.03;25.85;;;;;;;;;;5009655;28;20418;-67
2021/01/25 09:22:47;;;;;;;66.43;27.75;;;;;;;;;;5009421;28;20058;-66
2021/01/25 09:25:13;;;;;;;60.45;28.90;;;;;;;;;;5009490;28;20042;-67
2021/01/25 09:27:40;;;;;;;56.95;28.73;;;6.40;60.20;;;;;;5009293;28;20436;-66
2021/01/25 09:30:08;;;;;;;56.33;28.10;;;6.40;60.10;;;;;;5009290;28;20034;-66
2021/01/25 09:32:34;;;;;;;62.53;28.30;;;;;;;;;;5009395;28;20034;-66
2021/01/25 09:35:00;;;;;;;55.83;29.38;;;;;;;;;;5009456;28;20034;-67
2021/01/25 09:37:27;;;;;;;60.80;28.80;;;;;;;;;;5009450;28;20041;-66
2021/01/25 09:39:53;;;;;;;57.13;28.27;;;;;;;;;;5009405;28;20033;-66
2021/01/25 09:42:19;;;;;;;49.78;26.83;;;;;;;;;;5008323;28;20050;-67
2021/01/25 09:44:45;;;;;;;50.63;26.23;;;;;;;;;;5009064;28;20080;-66
2021/01/25 09:47:12;;;;;;;45.15;24.13;;;;;;;;;;5006143;28;20050;-65
2021/01/25 09:49:38;;;;;;;48.67;24.58;;;;;;;;;;5006418;28;20452;-67
2021/01/25 09:52:04;;;;;;;45.63;25.08;;;;;;;;;;5005650;28;20030;-68
2021/01/25 09:54:31;;;;;;;50.22;24.27;;;;;;;;;;5001175;28;20121;-66
2021/01/25 09:56:57;;;;;;;52.17;22.98;;;;;;;;;;4998788;28;20073;-66
2021/01/25 09:59:23;;;;;;;50.40;24.02;;;;;;;;;;5001015;28;20042;-66
2021/01/25 10:01:50;;;;;;;44.42;23.08;;;;;;;;;;4996957;28;20038;-66
2021/01/25 10:04:16;;;;;;;39.67;23.15;;;;;;;;;;5002650;28;20044;-65
2021/01/25 10:06:42;;;;;;;45.15;21.42;;;;;;;;;;5008787;28;20065;-68
2021/01/25 10:09:09;;;;;;;49.65;24.63;;;;;;;;;;5004424;28;20084;-66
2021/01/25 10:11:35;;;;;;;40.83;21.83;;;;;;;;;;4997583;28;20018;-67
2021/01/25 10:14:01;;;;;;;40.55;21.55;;;;;;;;;;5000097;28;20040;-68
2021/01/25 10:16:27;;;;;;;42.05;23.17;;;;;;;;;;4999717;28;20449;-65
2021/01/25 10:18:54;;;;;;;45.13;23.50;;;;;;;;;;4998577;28;20033;-66
2021/01/25 10:21:20;;;;;;;47.55;25.73;;;7.10;59.70;;;;;;5001335;28;20414;-67
2021/01/25 10:23:47;;;;;;;46.78;25.13;;;7.10;59.40;;;;;;4997038;28;20487;-67
2021/01/25 10:26:14;;;;;;;53.30;27.15;;;;;;;;;;5002138;28;20026;-67
2021/01/25 10:28:40;;;;;;;51.33;26.50;;;;;;;;;;4997192;28;20080;-68
2021/01/25 10:31:07;;;;;;;49.08;24.92;;;;;;;;;;5000785;28;20034;-68
2021/01/25 10:33:33;;;;;;;45.22;25.92;;;;;;;;;;4999176;28;20028;-67
2021/01/25 10:35:59;;;;;;;43.90;22.92;;;;;;;;;;4999268;28;20037;-67
2021/01/25 10:38:26;;;;;;;37.47;22.20;;;;;;;;;;5009231;28;20483;-67
2021/01/25 10:40:53;;;;;;;37.13;20.70;;;;;;;;;;5022154;28;20515;-66
2021/01/25 10:43:19;;;;;;;29.08;18.27;;;8.10;57.10;;;;;;5015049;28;20042;-65
2021/01/25 10:45:46;;;;;;;33.30;18.00;;;;;;;;;;5004958;28;20037;-68
2021/01/25 10:48:12;;;;;;;32.75;17.75;;;;;;;;;;5014018;28;20031;-65
2021/01/25 10:50:38;;;;;;;30.10;17.65;;;;;;;;;;5004332;28;20509;-66
2021/01/25 10:53:05;;;;;;;32.38;16.98;;;;;;;;;;4997809;28;20030;-67
2021/01/25 10:55:31;;;;;;;27.33;14.90;;;;;;;;;;5002964;28;20363;-66
2021/01/25 10:57:57;;;;;;;26.35;15.10;;;;;;;;;;5000264;28;20034;-67
2021/01/25 11:00:24;;;;;;;27.77;15.25;;;;;;;;;;5003449;28;20030;-66
2021/01/25 11:02:51;;;;;;;34.20;15.65;;;;;;;;;;5005146;28;20565;-65
2021/01/25 11:05:20;;;;;;;25.90;13.43;;;9.50;51.10;;;;;;5002819;28;20402;-67
2021/01/25 11:07:47;;;;;;;24.20;13.55;;;;;;;;;;5006122;28;20434;-67
2021/01/25 11:10:16;;;;;;;27.50;15.88;;;9.40;51.90;;;;;;5001386;28;20037;-67
2021/01/25 11:12:43;;;;;;;24.88;12.85;;;;;;;;;;5000516;28;20026;-70
2021/01/25 11:15:09;;;;;;;23.35;12.95;;;;;;;;;;5002100;28;20598;-68
2021/01/25 11:17:36;;;;;;;26.73;14.35;;;;;;;;;;5005704;28;20026;-65
2021/01/25 11:20:04;;;;;;;23.02;12.77;;;10.30;50.10;;;;;;5003836;28;20037;-66
2021/01/25 11:22:30;;;;;;;22.45;12.10;;;;;;;;;;5003488;28;20049;-68
2021/01/25 11:24:57;;;;;;;24.38;12.45;;;;;;;;;;5004990;28;20065;-66
2021/01/25 11:27:23;;;;;;;28.70;12.50;;;;;;;;;;5002574;28;20123;-66
2021/01/25 11:29:49;;;;;;;22.25;12.18;;;;;;;;;;5006724;28;20084;-66
2021/01/25 11:32:16;;;;;;;22.40;12.38;;;;;;;;;;5001170;28;20070;-66
2021/01/25 11:34:42;;;;;;;21.70;10.57;;;;;;;;;;4312705;28;10000697;-67
2021/01/25 11:37:08;;;;;;;19.40;10.63;;;;;;;;;;5002348;28;20513;-68
2021/01/25 11:39:35;;;;;;;21.25;10.30;;;;;;;;;;5011227;28;20030;-68
2021/01/25 11:42:01;;;;;;;20.50;10.95;;;;;;;;;;5010708;28;20486;-67
2021/01/25 11:44:28;;;;;;;20.08;10.57;;;;;;;;;;5009939;28;20041;-67
2021/01/25 11:46:54;;;;;;;19.63;10.65;;;;;;;;;;5010367;28;20108;-66
2021/01/25 11:49:21;;;;;;;21.90;9.65;;;;;;;;;;5011527;28;20052;-68
2021/01/25 11:51:47;;;;;;;19.88;10.57;;;;;;;;;;5010773;28;20073;-65
2021/01/25 11:54:14;;;;;;;19.23;9.30;;;;;;;;;;5011459;28;20087;-67
2021/01/25 11:56:40;;;;;;;19.17;10.48;;;;;;;;;;5010945;28;20121;-66
2021/01/25 11:59:06;;;;;;;16.25;8.93;;;;;;;;;;5010433;28;20379;-65
2021/01/25 12:01:33;;;;;;;17.58;8.40;;;;;;;;;;5010797;28;20572;-66
2021/01/25 12:03:59;;;;;;;16.02;7.68;;;;;;;;;;5010807;28;20033;-66
2021/01/25 12:06:26;;;;;;;14.90;7.47;;;;;;;;;;5010221;28;20058;-66
2021/01/25 12:08:52;;;;;;;16.70;8.65;;;;;;;;;;5009303;28;20282;-64
2021/01/25 12:11:18;;;;;;;13.55;8.05;;;;;;;;;;5009356;28;20076;-67
2021/01/25 12:13:45;;;;;;;15.45;7.80;;;;;;;;;;5010305;28;20042;-66
2021/01/25 12:16:15;;;;;;;16.70;7.90;;;;;;;;;;5012530;28;20026;-67
2021/01/25 12:18:41;;;;;;;13.63;7.35;;;;;;;;;;5012713;28;20072;-67
2021/01/25 12:21:08;;;;;;;14.90;6.68;;;;;;;;;;4998041;28;20057;-66
2021/01/25 12:23:34;;;;;;;14.38;7.03;;;;;;;;;;5012671;28;20042;-65
2021/01/25 12:26:01;;;;;;;16.33;7.25;;;;;;;;;;5012116;28;20030;-65
2021/01/25 12:28:27;;;;;;;11.68;6.68;;;;;;;;;;5012587;28;20037;-66
2021/01/25 12:30:53;;;;;;;16.90;6.43;;;;;;;;;;5011597;28;20026;-66
2021/01/25 12:33:20;;;;;;;11.07;5.43;;;;;;;;;;5012237;28;20034;-65
2021/01/25 12:35:47;;;;;;;9.82;5.72;;;;;;;;;;5011191;28;20042;-65
2021/01/25 12:38:14;;;;;;;11.45;6.82;;;;;;;;;;5011947;28;20058;-65
2021/01/25 12:40:40;;;;;;;13.18;6.82;;;;;;;;;;5011724;28;20390;-66
2021/01/25 12:43:06;;;;;;;13.52;6.78;;;;;;;;;;5011972;28;20129;-66
2021/01/25 12:45:33;;;;;;;16.65;7.55;;;;;;;;;;5011747;28;20040;-65
2021/01/25 12:47:59;;;;;;;14.57;7.55;;;;;;;;;;5012204;28;20486;-65
2021/01/25 12:50:25;;;;;;;14.07;7.40;;;;;;;;;;5011385;28;20041;-65
2021/01/25 12:52:53;;;;;;;12.98;7.05;;;;;;;;;;5012035;28;20030;-65
2021/01/25 12:55:20;;;;;;;15.85;6.95;;;;;;;;;;5011650;28;20064;-64
2021/01/25 12:57:46;;;;;;;;;;;11.20;44.60;;;;;;5012452;28;20402;-66
2021/01/25 13:00:12;;;;;;;12.75;7.68;;;;;;;;;;5011812;28;19909;-65
2021/01/25 13:02:39;;;;;;;13.18;7.70;;;;;;;;;;5011766;28;20136;-67
2021/01/25 13:05:07;;;;;;;14.23;6.95;;;11.40;44.50;;;;;;5011497;28;20096;-67
2021/01/25 13:07:33;;;;;;;11.65;7.18;;;;;;;;;;5011873;28;20041;-67
2021/01/25 13:10:00;;;;;;;14.70;7.57;;;;;;;;;;5012044;28;20064;-67
2021/01/25 13:12:29;;;;;;;15.60;7.78;;;;;;;;;;5011775;28;20026;-65
2021/01/25 13:14:55;;;;;;;16.00;7.47;;;;;;;;;;5011588;28;20045;-65
2021/01/25 13:17:22;;;;;;;12.88;7.13;;;;;;;;;;5011589;28;20033;-66
2021/01/25 13:19:49;;;;;;;16.08;7.68;;;;;;;;;;5010989;28;20084;-65
2021/01/25 13:22:15;;;;;;;14.88;7.90;;;;;;;;;;5011126;28;20045;-67
2021/01/25 13:24:41;;;;;;;14.30;7.38;;;;;;;;;;5011154;28;20548;-67
2021/01/25 13:27:08;;;;;;;12.77;7.15;;;;;;;;;;5011417;28;20461;-64
2021/01/25 13:29:34;;;;;;;14.30;6.38;;;;;;;;;;5011216;28;20026;-64
2021/01/25 13:32:00;;;;;;;17.75;7.32;;;;;;;;;;5011651;28;20087;-67
2021/01/25 13:34:26;;;;;;;14.30;7.43;;;;;;;;;;5011018;28;20030;-66
2021/01/25 13:36:53;;;;;;;14.27;7.45;;;;;;;;;;5011029;28;20029;-66
2021/01/25 13:39:19;;;;;;;16.60;7.85;;;;;;;;;;5011472;28;20034;-65
2021/01/25 13:41:45;;;;;;;12.48;6.63;;;;;;;;;;5011285;28;20556;-68
2021/01/25 13:44:12;;;;;;;12.05;6.95;;;;;;;;;;5011364;28;20080;-64
2021/01/25 13:46:38;;;;;;;16.33;7.38;;;;;;;;;;5011025;28;20026;-65
2021/01/25 13:49:04;;;;;;;13.80;7.03;;;;;;;;;;5011109;28;20033;-66
2021/01/25 13:51:30;;;;;;;11.52;6.82;;;;;;;;;;5011569;28;20038;-65